createdAt,value
2022-08-18T00:01:50.319Z,18.73
2022-08-18T00:04:35.598Z,17.55
2022-08-18T00:07:07.647Z,19.30
2022-08-18T00:09:37.154Z,20.65
2022-08-18T00:12:09.756Z,17.38
2022-08-18T00:14:36.980Z,18.90
2022-08-18T00:17:04.477Z,22.55
2022-08-18T00:19:46.333Z,18.25
2022-08-18T00:22:16.772Z,20.50
2022-08-18T00:24:48.653Z,20.30
2022-08-18T00:27:23.617Z,19.63
2022-08-18T00:29:53.110Z,22.10
2022-08-18T00:32:24.036Z,16.83
2022-08-18T00:34:53.196Z,19.17
2022-08-18T00:37:21.830Z,19.23
2022-08-18T00:39:52.592Z,19.92
2022-08-18T00:42:27.664Z,18.80
2022-08-18T00:45:01.657Z,22.00
2022-08-18T00:47:41.700Z,17.95
2022-08-18T00:50:22.073Z,26.67
2022-08-18T00:53:20.022Z,17.63
2022-08-18T00:55:54.394Z,23.52
2022-08-18T00:58:47.132Z,20.33
2022-08-18T01:01:17.414Z,17.55
2022-08-18T01:03:53.221Z,21.20
2022-08-18T01:06:28.623Z,21.05
2022-08-18T01:08:56.275Z,23.02
2022-08-18T01:11:23.439Z,22.58
2022-08-18T01:13:51.320Z,22.13
2022-08-18T01:16:37.841Z,23.15
2022-08-18T01:19:23.997Z,19.08
2022-08-18T01:21:58.099Z,18.90
2022-08-18T01:24:47.596Z,23.65
2022-08-18T01:27:18.933Z,20.23
2022-08-18T01:29:48.737Z,24.10
2022-08-18T01:32:20.399Z,16.95
2022-08-18T01:34:49.358Z,21.05
2022-08-18T01:37:20.198Z,22.65
2022-08-18T01:41:22.676Z,21.02
2022-08-18T01:42:36.650Z,22.02
2022-08-18T01:45:07.681Z,20.20
2022-08-18T01:47:47.619Z,23.85
2022-08-18T01:50:16.657Z,25.50
2022-08-18T01:52:44.006Z,20.02
2022-08-18T01:55:12.426Z,22.30
2022-08-18T01:57:45.223Z,20.98
2022-08-18T02:00:14.827Z,21.90
2022-08-18T02:02:42.333Z,25.83
2022-08-18T02:05:21.291Z,21.40
2022-08-18T02:07:48.435Z,20.25
2022-08-18T02:10:21.277Z,22.88
2022-08-18T02:12:48.444Z,19.88
2022-08-18T02:15:15.649Z,22.10
2022-08-18T02:17:45.285Z,22.35
2022-08-18T02:20:16.045Z,22.15
2022-08-18T02:22:43.511Z,28.55
2022-08-18T02:25:12.119Z,22.88
2022-08-18T02:27:39.484Z,24.48
2022-08-18T02:30:10.100Z,23.08
2022-08-18T02:32:37.577Z,42.53
2022-08-18T02:35:08.310Z,27.55
2022-08-18T02:37:42.126Z,27.40
2022-08-18T02:40:11.402Z,26.33
2022-08-18T02:42:43.072Z,23.20
2022-08-18T02:45:10.956Z,25.35
2022-08-18T02:47:38.077Z,26.67
2022-08-18T02:50:06.393Z,25.27
2022-08-18T02:52:35.249Z,24.35
2022-08-18T02:55:02.547Z,25.60
2022-08-18T02:57:30.218Z,23.35
2022-08-18T02:59:57.796Z,26.13
2022-08-18T03:02:27.170Z,24.63
2022-08-18T03:04:54.297Z,23.63
2022-08-18T03:07:21.486Z,25.13
2022-08-18T03:09:48.692Z,24.98
2022-08-18T03:12:15.919Z,30.30
2022-08-18T03:14:43.806Z,25.40
2022-08-18T03:17:10.937Z,23.25
2022-08-18T03:19:38.418Z,24.52
2022-08-18T03:22:18.742Z,24.33
2022-08-18T03:24:56.219Z,21.73
2022-08-18T03:27:23.315Z,26.05
2022-08-18T03:29:51.461Z,27.23
2022-08-18T03:32:19.005Z,30.92
2022-08-18T03:34:46.276Z,29.55
2022-08-18T03:37:16.043Z,31.15
2022-08-18T03:39:43.362Z,27.23
2022-08-18T03:42:10.960Z,30.05
2022-08-18T03:44:38.139Z,28.75
2022-08-18T03:47:10.157Z,31.20
2022-08-18T03:49:38.005Z,28.08
2022-08-18T03:52:09.682Z,32.20
2022-08-18T03:54:39.103Z,31.13
2022-08-18T03:57:09.641Z,27.65
2022-08-18T03:59:37.638Z,34.38
2022-08-18T04:02:05.870Z,33.60
2022-08-18T04:04:33.922Z,31.00
2022-08-18T04:07:11.485Z,35.42
2022-08-18T04:09:39.297Z,38.17
2022-08-18T04:12:16.456Z,35.47
2022-08-18T04:14:48.583Z,37.78
2022-08-18T04:17:24.504Z,33.13
2022-08-18T04:19:55.916Z,32.65
2022-08-18T04:22:25.126Z,31.92
2022-08-18T04:24:53.281Z,31.70
2022-08-18T04:27:22.008Z,29.73
2022-08-18T04:29:49.705Z,30.88
2022-08-18T04:32:17.875Z,34.38
2022-08-18T04:34:45.161Z,29.92
2022-08-18T04:37:12.417Z,30.52
2022-08-18T04:39:39.711Z,28.77
2022-08-18T04:42:07.038Z,27.77
2022-08-18T04:44:38.033Z,35.60
2022-08-18T04:47:07.145Z,29.20
2022-08-18T04:49:34.257Z,29.35
2022-08-18T04:52:38.244Z,33.00
2022-08-18T04:55:09.945Z,32.85
2022-08-18T04:57:38.248Z,35.13
2022-08-18T05:00:08.513Z,34.03
2022-08-18T05:02:35.958Z,41.33
2022-08-18T05:05:04.504Z,38.67
2022-08-18T05:07:32.640Z,39.15
2022-08-18T05:09:59.933Z,35.50
2022-08-18T05:12:27.131Z,37.17
2022-08-18T05:14:57.250Z,31.80
2022-08-18T05:17:30.543Z,33.30
2022-08-18T05:20:01.403Z,37.45
2022-08-18T05:22:31.349Z,37.38
2022-08-18T05:25:00.332Z,34.83
2022-08-18T05:27:35.461Z,38.50
2022-08-18T05:30:03.985Z,30.73
2022-08-18T05:32:47.859Z,32.65
2022-08-18T05:35:25.445Z,31.55
2022-08-18T05:38:15.844Z,30.67
2022-08-18T05:40:44.325Z,32.40
2022-08-18T05:43:11.608Z,32.33
2022-08-18T05:45:41.103Z,32.00
2022-08-18T05:48:08.402Z,34.55
2022-08-18T05:50:38.079Z,32.95
2022-08-18T05:53:13.923Z,34.03
2022-08-18T05:56:06.984Z,30.30
2022-08-18T05:58:42.333Z,29.20
2022-08-18T06:01:23.021Z,32.53
2022-08-18T06:04:06.269Z,29.50
2022-08-18T06:06:36.776Z,31.20
2022-08-18T06:09:24.823Z,29.35
2022-08-18T06:12:09.927Z,35.78
2022-08-18T06:14:38.948Z,30.75
2022-08-18T06:17:24.397Z,27.48
2022-08-18T06:20:02.507Z,33.25
2022-08-18T06:22:52.633Z,29.05
2022-08-18T06:25:44.430Z,27.27
2022-08-18T06:28:17.202Z,27.33
2022-08-18T06:31:02.926Z,25.95
2022-08-18T06:33:39.728Z,25.70
2022-08-18T06:36:25.223Z,23.48
2022-08-18T06:39:29.267Z,26.33
2022-08-18T06:41:56.438Z,27.02
2022-08-18T06:44:39.273Z,21.88
2022-08-18T06:47:28.694Z,28.45
2022-08-18T06:50:00.770Z,27.20
2022-08-18T06:52:30.235Z,26.23
2022-08-18T06:55:00.185Z,27.13
2022-08-18T06:57:30.394Z,24.75
2022-08-18T07:02:50.086Z,26.00
2022-08-18T07:05:31.021Z,26.65
2022-08-18T07:08:18.786Z,25.70
2022-08-18T07:10:49.445Z,25.23
2022-08-18T07:13:19.715Z,31.27
2022-08-18T07:15:48.727Z,24.70
2022-08-18T07:18:24.701Z,23.38
2022-08-18T07:21:02.177Z,21.73
2022-08-18T07:23:34.732Z,24.85
2022-08-18T07:26:08.954Z,21.52
2022-08-18T07:28:44.529Z,22.20
2022-08-18T07:31:19.828Z,20.25
2022-08-18T07:33:56.144Z,25.58
2022-08-18T07:36:27.390Z,20.52
2022-08-18T07:39:03.068Z,21.70
2022-08-18T07:41:41.961Z,19.58
2022-08-18T07:44:16.700Z,19.65
2022-08-18T07:47:05.418Z,23.35
2022-08-18T07:49:36.051Z,17.95
2022-08-18T07:52:36.217Z,15.98
2022-08-18T07:55:15.843Z,14.98
2022-08-18T07:57:51.149Z,14.07
2022-08-18T08:00:58.139Z,13.63
2022-08-18T08:03:51.978Z,14.93
2022-08-18T08:06:24.804Z,14.55
2022-08-18T08:09:00.130Z,15.43
2022-08-18T08:11:44.715Z,16.08
2022-08-18T08:14:32.882Z,12.55
2022-08-18T08:17:06.819Z,16.50
2022-08-18T08:20:00.474Z,14.00
2022-08-18T08:22:53.853Z,15.82
2022-08-18T08:28:36.888Z,12.77
2022-08-18T08:34:14.431Z,11.27
2022-08-18T08:36:45.619Z,13.75
2022-08-18T08:39:41.726Z,11.35
2022-08-18T08:42:30.736Z,10.35
2022-08-18T08:45:06.915Z,8.02
2022-08-18T08:48:06.839Z,9.07
2022-08-18T08:50:44.862Z,9.02
2022-08-18T08:53:11.890Z,7.55
2022-08-18T08:55:47.279Z,10.27
2022-08-18T08:58:26.838Z,8.32
2022-08-18T09:00:56.578Z,8.02
2022-08-18T09:03:41.828Z,9.38
2022-08-18T09:06:17.758Z,9.90
2022-08-18T09:09:05.393Z,7.60
2022-08-18T09:11:54.083Z,10.50
2022-08-18T09:14:32.459Z,10.85
2022-08-18T09:17:11.526Z,7.72
2022-08-18T09:19:47.658Z,9.07
2022-08-18T09:22:40.741Z,9.55
2022-08-18T09:25:30.278Z,8.82
2022-08-18T09:28:16.648Z,11.05
2022-08-18T09:31:08.688Z,12.45
2022-08-18T09:33:40.703Z,11.70
2022-08-18T09:36:21.469Z,10.73
2022-08-18T09:39:20.487Z,9.40
2022-08-18T09:42:03.386Z,8.75
2022-08-18T09:44:49.269Z,10.13
2022-08-18T09:47:22.333Z,12.35
2022-08-18T09:49:56.172Z,12.50
2022-08-18T09:52:24.497Z,9.38
2022-08-18T09:54:59.466Z,13.45
2022-08-18T09:57:27.375Z,10.35
2022-08-18T09:59:59.271Z,10.60
2022-08-18T10:02:29.614Z,10.27
2022-08-18T10:05:15.498Z,8.48
2022-08-18T10:07:45.376Z,8.82
2022-08-18T10:13:32.618Z,9.18
2022-08-18T10:16:21.460Z,9.15
2022-08-18T10:19:18.601Z,9.85
2022-08-18T10:22:07.317Z,9.75
2022-08-18T10:24:56.480Z,7.28
2022-08-18T10:27:58.121Z,8.40
2022-08-18T10:30:34.619Z,8.93
2022-08-18T10:33:18.009Z,10.15
2022-08-18T10:35:59.103Z,8.32
2022-08-18T10:38:37.201Z,9.45
2022-08-18T10:41:21.468Z,8.63
2022-08-18T10:43:57.265Z,10.52
2022-08-18T10:46:32.683Z,9.70
2022-08-18T10:49:15.080Z,9.82
2022-08-18T10:52:08.610Z,12.35
2022-08-18T10:54:51.192Z,10.93
2022-08-18T10:58:14.712Z,9.48
2022-08-18T11:01:01.179Z,11.65
2022-08-18T11:04:00.109Z,12.07
2022-08-18T11:06:47.644Z,8.52
2022-08-18T11:09:25.727Z,8.73
2022-08-18T11:12:01.571Z,8.05
2022-08-18T11:14:52.581Z,8.52
2022-08-18T11:18:10.533Z,9.43
2022-08-18T11:20:40.242Z,9.40
2022-08-18T11:23:17.239Z,9.95
2022-08-18T11:25:45.168Z,8.73
2022-08-18T11:31:10.990Z,9.80
2022-08-18T11:33:42.314Z,13.50
2022-08-18T11:36:09.992Z,12.90
2022-08-18T11:38:39.465Z,11.18
2022-08-18T11:41:24.506Z,10.65
2022-08-18T11:44:02.806Z,10.43
2022-08-18T11:46:41.043Z,10.93
2022-08-18T11:49:18.179Z,9.45
2022-08-18T11:52:03.529Z,9.38
2022-08-18T11:54:50.757Z,8.48
2022-08-18T12:01:01.620Z,10.27
2022-08-18T12:03:45.013Z,9.63
2022-08-18T12:06:20.317Z,9.52
2022-08-18T12:09:04.484Z,9.85
2022-08-18T12:11:36.587Z,11.48
2022-08-18T12:14:29.829Z,9.38
2022-08-18T12:17:01.441Z,9.32
2022-08-18T12:19:34.241Z,9.40
2022-08-18T12:22:10.992Z,11.27
2022-08-18T12:27:31.975Z,8.23
2022-08-18T12:30:03.636Z,9.35
2022-08-18T12:32:46.894Z,11.68
2022-08-18T12:35:22.202Z,8.45
2022-08-18T12:38:13.700Z,11.00
2022-08-18T12:40:37.441Z,10.98
2022-08-18T12:43:06.214Z,9.35
2022-08-18T12:45:37.951Z,8.07
2022-08-18T12:48:06.820Z,12.63
2022-08-18T12:53:29.483Z,8.02
2022-08-18T12:56:27.024Z,7.95
2022-08-18T12:58:55.600Z,9.93
2022-08-18T13:01:25.226Z,7.95
2022-08-18T13:04:12.238Z,10.32
2022-08-18T13:06:59.814Z,7.50
2022-08-18T13:09:34.739Z,7.18
2022-08-18T13:12:16.614Z,10.23
2022-08-18T13:14:45.457Z,9.37
2022-08-18T13:17:30.159Z,9.45
2022-08-18T13:22:40.529Z,10.75
2022-08-18T13:25:32.869Z,9.07
2022-08-18T13:28:01.760Z,9.70
2022-08-18T13:30:32.148Z,11.35
2022-08-18T13:33:05.464Z,9.55
2022-08-18T13:35:54.485Z,8.60
2022-08-18T13:38:27.213Z,8.40
2022-08-18T13:40:58.731Z,11.30
2022-08-18T13:43:36.008Z,7.70
2022-08-18T13:46:06.410Z,9.68
2022-08-18T13:48:36.302Z,7.85
2022-08-18T13:51:05.657Z,7.82
2022-08-18T13:53:50.484Z,9.70
2022-08-18T13:56:31.558Z,11.48
2022-08-18T13:58:59.268Z,9.25
2022-08-18T14:01:45.156Z,9.35
2022-08-18T14:04:20.253Z,8.13
2022-08-18T14:06:56.387Z,14.45
2022-08-18T14:09:35.760Z,8.38
2022-08-18T14:12:22.956Z,9.93
2022-08-18T14:14:55.693Z,9.85
2022-08-18T14:17:25.860Z,11.30
2022-08-18T14:20:15.323Z,11.95
2022-08-18T14:23:11.365Z,9.25
2022-08-18T14:25:57.348Z,11.35
2022-08-18T14:28:28.831Z,8.93
2022-08-18T14:30:58.265Z,10.60
2022-08-18T14:33:49.384Z,8.32
2022-08-18T14:36:18.110Z,10.38
2022-08-18T14:38:45.733Z,9.63
2022-08-18T14:41:14.918Z,8.38
2022-08-18T14:44:10.970Z,8.47
2022-08-18T14:46:32.881Z,10.48
2022-08-18T14:49:03.748Z,9.68
2022-08-18T14:51:33.456Z,12.80
2022-08-18T14:54:01.687Z,9.57
2022-08-18T14:56:33.265Z,10.82
2022-08-18T14:59:07.770Z,12.98
2022-08-18T15:01:42.427Z,12.07
2022-08-18T15:04:18.690Z,12.20
2022-08-18T15:06:55.878Z,11.98
2022-08-18T15:09:26.899Z,12.20
2022-08-18T15:11:56.399Z,11.20
2022-08-18T15:14:33.092Z,9.65
2022-08-18T15:17:11.904Z,9.90
2022-08-18T15:20:00.331Z,12.90
2022-08-18T15:22:47.863Z,9.90
2022-08-18T15:25:34.161Z,12.85
2022-08-18T15:28:01.732Z,8.45
2022-08-18T15:30:29.331Z,8.90
2022-08-18T15:32:59.165Z,11.13
2022-08-18T15:35:31.830Z,7.55
2022-08-18T15:38:00.875Z,8.93
2022-08-18T15:40:35.854Z,10.35
2022-08-18T15:43:09.987Z,11.63
2022-08-18T15:45:43.509Z,9.30
2022-08-18T15:48:25.134Z,8.52
2022-08-18T15:50:52.535Z,10.07
2022-08-18T15:53:23.635Z,8.15
2022-08-18T15:55:50.969Z,8.70
2022-08-18T15:58:22.296Z,9.00
2022-08-18T16:00:50.552Z,8.95
2022-08-18T16:03:18.324Z,9.82
2022-08-18T16:05:54.218Z,8.65
2022-08-18T16:08:23.733Z,8.68
2022-08-18T16:10:51.428Z,7.90
2022-08-18T16:13:19.502Z,8.75
2022-08-18T16:15:48.430Z,9.02
2022-08-18T16:18:17.445Z,10.05
2022-08-18T16:20:45.431Z,11.23
2022-08-18T16:23:13.895Z,12.02
2022-08-18T16:25:43.302Z,12.95
2022-08-18T16:28:13.511Z,9.38
2022-08-18T16:30:41.571Z,12.73
2022-08-18T16:33:08.972Z,12.85
2022-08-18T16:35:37.846Z,11.82
2022-08-18T16:38:09.282Z,9.20
2022-08-18T16:40:37.718Z,8.93
2022-08-18T16:43:06.092Z,10.85
2022-08-18T16:45:36.376Z,10.77
2022-08-18T16:48:04.021Z,9.40
2022-08-18T16:50:31.181Z,10.63
2022-08-18T16:52:58.583Z,10.85
2022-08-18T16:55:26.945Z,8.10
2022-08-18T16:58:15.608Z,7.85
2022-08-18T17:01:02.000Z,11.68
2022-08-18T17:03:47.929Z,10.50
2022-08-18T17:06:18.404Z,13.35
2022-08-18T17:08:47.070Z,9.48
2022-08-18T17:11:17.992Z,12.15
2022-08-18T17:13:46.971Z,10.30
2022-08-18T17:16:16.199Z,11.85
2022-08-18T17:18:43.708Z,8.83
2022-08-18T17:21:13.402Z,9.40
2022-08-18T17:23:41.746Z,10.82
2022-08-18T17:26:23.523Z,11.35
2022-08-18T17:28:54.765Z,13.02
2022-08-18T17:31:24.820Z,9.82
2022-08-18T17:33:57.495Z,12.93
2022-08-18T17:36:39.180Z,11.60
2022-08-18T17:39:13.359Z,9.93
2022-08-18T17:42:02.647Z,10.85
2022-08-18T17:44:31.517Z,8.15
2022-08-18T17:47:00.719Z,10.43
2022-08-18T17:50:26.295Z,12.82
2022-08-18T17:52:53.403Z,9.38
2022-08-18T17:55:28.879Z,8.95
2022-08-18T17:58:14.718Z,8.50
2022-08-18T18:00:42.226Z,8.23
2022-08-18T18:03:12.776Z,7.53
2022-08-18T18:05:47.726Z,9.30
2022-08-18T18:08:14.819Z,8.65
2022-08-18T18:11:05.069Z,8.05
2022-08-18T18:13:34.141Z,11.65
2022-08-18T18:16:20.546Z,11.00
2022-08-18T18:19:00.933Z,10.80
2022-08-18T18:21:58.902Z,9.23
2022-08-18T18:24:28.678Z,7.93
2022-08-18T18:26:55.782Z,9.30
2022-08-18T18:29:37.106Z,8.52
2022-08-18T18:32:27.439Z,10.13
2022-08-18T18:35:21.047Z,10.95
2022-08-18T18:37:54.334Z,10.25
2022-08-18T18:40:54.331Z,9.75
2022-08-18T18:43:43.772Z,10.18
2022-08-18T18:46:19.074Z,10.18
2022-08-18T18:49:19.253Z,8.52
2022-08-18T18:52:11.642Z,11.73
2022-08-18T18:54:39.774Z,14.88
2022-08-18T18:57:12.933Z,11.90
2022-08-18T19:00:23.321Z,10.02
2022-08-18T19:03:16.432Z,14.80
2022-08-18T19:06:06.130Z,10.88
2022-08-18T19:08:45.532Z,13.15
2022-08-18T19:11:48.266Z,9.90
2022-08-18T19:14:22.188Z,10.88
2022-08-18T19:17:13.782Z,10.88
2022-08-18T19:19:47.659Z,10.02
2022-08-18T19:22:30.282Z,13.32
2022-08-18T19:25:05.497Z,18.45
2022-08-18T19:27:40.112Z,8.25
2022-08-18T19:30:12.935Z,10.60
2022-08-18T19:32:49.878Z,12.45
2022-08-18T19:35:47.247Z,12.88
2022-08-18T19:38:44.767Z,9.88
2022-08-18T19:41:30.348Z,12.20
2022-08-18T19:44:23.222Z,10.02
2022-08-18T19:46:57.654Z,10.88
2022-08-18T19:49:31.539Z,11.05
2022-08-18T19:52:05.940Z,13.85
2022-08-18T19:55:27.674Z,13.43
2022-08-18T19:58:53.363Z,9.50
2022-08-18T20:01:38.576Z,12.02
2022-08-18T20:04:26.382Z,13.77
2022-08-18T20:07:18.227Z,11.43
2022-08-18T20:09:59.211Z,13.70
2022-08-18T20:12:39.984Z,10.50
2022-08-18T20:15:13.017Z,8.63
2022-08-18T20:17:58.315Z,12.02
2022-08-18T20:20:29.968Z,12.82
2022-08-18T20:22:59.884Z,10.18
2022-08-18T20:28:11.907Z,12.77
2022-08-18T20:30:38.970Z,10.60
2022-08-18T20:33:14.894Z,10.25
2022-08-18T20:36:14.309Z,12.27
2022-08-18T20:38:45.819Z,14.05
2022-08-18T20:41:43.549Z,9.88
2022-08-18T20:44:29.233Z,10.93
2022-08-18T20:47:34.635Z,10.13
2022-08-18T20:50:23.226Z,9.77
2022-08-18T20:53:24.336Z,9.63
2022-08-18T20:56:32.230Z,10.43
2022-08-18T20:59:20.315Z,11.77
2022-08-18T21:02:03.308Z,15.20
2022-08-18T21:04:41.210Z,11.88
2022-08-18T21:07:17.537Z,13.77
2022-08-18T21:10:12.900Z,15.30
2022-08-18T21:12:51.953Z,13.63
2022-08-18T21:15:21.267Z,11.50
2022-08-18T21:18:01.264Z,9.80
2022-08-18T21:20:29.969Z,13.20
2022-08-18T21:23:09.988Z,16.95
2022-08-18T21:28:08.420Z,18.90
2022-08-18T21:30:35.622Z,21.95
2022-08-18T21:33:21.009Z,19.08
2022-08-18T21:35:48.665Z,16.75
2022-08-18T21:38:27.040Z,19.02
2022-08-18T21:41:00.166Z,16.48
2022-08-18T21:43:49.370Z,15.68
2022-08-18T21:46:29.377Z,22.07
2022-08-18T21:49:00.515Z,14.15
2022-08-18T21:51:42.314Z,20.25
2022-08-18T21:54:10.000Z,15.05
2022-08-18T21:56:37.733Z,15.85
2022-08-18T21:59:20.973Z,15.35
2022-08-18T22:01:54.723Z,16.27
2022-08-18T22:04:24.689Z,14.35
2022-08-18T22:06:58.494Z,16.90
2022-08-18T22:09:47.365Z,15.63
2022-08-18T22:12:42.851Z,16.40
2022-08-18T22:15:36.197Z,23.13
2022-08-18T22:18:06.610Z,13.15
2022-08-18T22:20:52.198Z,16.15
2022-08-18T22:23:46.631Z,14.85
2022-08-18T22:26:16.844Z,16.02
2022-08-18T22:29:13.453Z,12.25
2022-08-18T22:31:46.617Z,14.38
2022-08-18T22:34:27.038Z,14.27
2022-08-18T22:37:14.647Z,17.08
2022-08-18T22:39:52.961Z,18.23
2022-08-18T22:42:22.696Z,16.83
2022-08-18T22:44:50.304Z,15.52
2022-08-18T22:47:18.055Z,14.75
2022-08-18T22:49:45.400Z,15.85
2022-08-18T22:52:32.933Z,19.70
2022-08-18T22:55:03.849Z,16.13
2022-08-18T22:57:38.857Z,17.70
2022-08-18T23:00:13.464Z,21.15
2022-08-18T23:02:41.005Z,15.73
2022-08-18T23:05:08.457Z,16.77
2022-08-18T23:07:35.675Z,19.92
2022-08-18T23:10:03.178Z,16.50
2022-08-18T23:12:35.503Z,17.30
2022-08-18T23:15:09.820Z,15.18
2022-08-18T23:17:37.664Z,19.00
2022-08-18T23:20:09.379Z,15.77
2022-08-18T23:22:39.700Z,16.95
2022-08-18T23:25:09.412Z,20.05
2022-08-18T23:27:36.895Z,15.05
2022-08-18T23:30:05.335Z,18.42
2022-08-18T23:32:33.574Z,17.15
2022-08-18T23:35:01.107Z,16.95
2022-08-18T23:37:28.125Z,18.10
2022-08-18T23:39:56.088Z,17.15
2022-08-18T23:42:25.107Z,19.67
2022-08-18T23:44:52.243Z,18.05
2022-08-18T23:47:21.163Z,17.13
2022-08-18T23:49:48.538Z,16.48
2022-08-18T23:52:15.869Z,17.67
2022-08-18T23:54:43.013Z,16.08
2022-08-18T23:57:10.235Z,14.90
2022-08-18T23:59:37.213Z,18.30
